High Springs, Florida
Current Conditions -  °F | °C
As of 12:53 AM on Friday 19 Dec 2014 (Local Time) from KGNV Reporting Station
Clear Clear  
Wind Chill: 49°   Ceiling: Unl
Heat Index: 49°   Visibility: 10mi
Dew Point: 46°   Wind: 3mph
Humidity: 90%   Direction: 300°WNW
Pressure: 30.13"   Gusts: NA
Location:  29.82°N, 82.59°W
Report Text: KGNV 190553Z AUTO 30003KT 10SM CLR 09/08 A3013 RMK AO2 SLP204 T00940078 10117 20089 58001
Loading
Personal Weather Stations






























Interactive Weather Map New forecast layout! Learn more

10-Day Weather Forecast

Advertisements
Track Severe Weather on mobile